Time;durP1;ratioP1;P1;durP2;ratioP2;P2;SDS_P1;SDS_P2;PMS_P1;PMS_P2;Temp;Humidity;BMP_temperature;BMP_pressure;BME280_temperature;BME280_humidity;BME280_pressure;Samples;Min_cycle;Max_cycle;Signal;HPM_P1;HPM_P2
2023/05/31 00:01:08;;;;;;;5.17;1.53;;;16.20;99.90;;;;;;4960242;28;20667;-73
2023/05/31 00:03:35;;;;;;;2.13;1.50;;;16.20;99.90;;;;;;4961789;28;20177;-74
2023/05/31 00:06:00;;;;;;;1.93;1.60;;;16.20;99.90;;;;;;4970884;28;20197;-73
2023/05/31 00:08:26;;;;;;;4.60;1.73;;;16.20;99.90;;;;;;4990521;28;20629;-74
2023/05/31 00:10:52;;;;;;;3.13;1.40;;;16.20;99.90;;;;;;4979015;28;20592;-75
2023/05/31 00:13:17;;;;;;;3.33;1.47;;;16.20;99.90;;;;;;4960496;28;20173;-74
2023/05/31 00:15:43;;;;;;;2.53;1.60;;;;;;;;;;4971210;28;20193;-73
2023/05/31 00:18:08;;;;;;;2.73;1.40;;;16.10;99.90;;;;;;4969768;28;20717;-73
2023/05/31 00:20:34;;;;;;;5.37;1.20;;;16.00;99.90;;;;;;4979732;28;20185;-74
2023/05/31 00:23:00;;;;;;;3.50;1.70;;;16.00;99.90;;;;;;5021364;28;20246;-74
2023/05/31 00:25:25;;;;;;;2.47;1.30;;;16.00;99.90;;;;;;5007847;23;20673;-77
2023/05/31 00:27:51;;;;;;;4.30;2.13;;;16.00;99.90;;;;;;4989596;28;20660;-78
2023/05/31 00:30:17;;;;;;;1.33;1.23;;;16.00;99.90;;;;;;4990454;28;20165;-78
2023/05/31 00:32:42;;;;;;;2.83;1.40;;;15.90;99.90;;;;;;4991763;28;20168;-77
2023/05/31 00:35:08;;;;;;;2.17;1.40;;;15.90;99.90;;;;;;4989825;28;20184;-78
2023/05/31 00:37:37;;;;;;;2.10;1.30;;;15.80;99.90;;;;;;4973102;28;20208;-77
2023/05/31 00:40:05;;;;;;;4.20;1.50;;;15.70;99.90;;;;;;4970892;28;20180;-77
2023/05/31 00:42:31;;;;;;;4.73;1.63;;;15.80;99.90;;;;;;4971013;28;20189;-78
2023/05/31 00:44:57;;;;;;;1.97;1.67;;;15.70;99.90;;;;;;4971578;28;20194;-77
2023/05/31 00:47:23;;;;;;;3.17;1.70;;;15.60;99.90;;;;;;4970826;28;20304;-78
2023/05/31 00:49:48;;;;;;;3.20;1.60;;;15.60;99.90;;;;;;4971522;28;20227;-78
2023/05/31 00:52:14;;;;;;;4.40;1.60;;;15.60;99.90;;;;;;4972009;28;20174;-77
2023/05/31 00:54:40;;;;;;;1.87;1.37;;;15.60;99.90;;;;;;4971442;28;20173;-78
2023/05/31 00:57:06;;;;;;;2.00;1.60;;;15.60;99.90;;;;;;4971937;28;20205;-78
2023/05/31 00:59:32;;;;;;;1.67;1.57;;;15.60;99.90;;;;;;4971730;28;20204;-79
2023/05/31 01:01:58;;;;;;;4.43;1.40;;;15.50;99.90;;;;;;4971780;28;20550;-78
2023/05/31 01:04:25;;;;;;;6.17;1.40;;;15.50;99.90;;;;;;4970242;28;20342;-78
2023/05/31 01:06:51;;;;;;;3.93;1.63;;;15.40;99.90;;;;;;4971484;28;20220;-78
2023/05/31 01:09:17;;;;;;;2.10;1.60;;;15.50;99.90;;;;;;4970500;28;20177;-77
2023/05/31 01:11:56;;;;;;;4.33;1.30;;;15.40;99.90;;;;;;4971225;28;20596;-78
2023/05/31 01:15:08;;;;;;;2.00;1.40;;;15.40;99.90;;;;;;4969984;28;20172;-78
2023/05/31 01:17:48;;;;;;;2.70;1.67;;;15.30;99.90;;;;;;4984898;28;20215;-78
2023/05/31 01:20:19;;;;;;;1.97;1.50;;;15.40;99.90;;;;;;4970381;28;20173;-79
2023/05/31 01:23:04;;;;;;;4.70;1.40;;;15.40;99.90;;;;;;4970307;28;20555;-77
2023/05/31 01:25:54;;;;;;;1.93;1.30;;;15.30;99.90;;;;;;4970668;28;20185;-79
2023/05/31 01:28:21;;;;;;;3.97;1.20;;;15.30;99.90;;;;;;4971560;28;20244;-77
2023/05/31 01:30:49;;;;;;;1.50;1.40;;;15.40;99.90;;;;;;4969898;28;20178;-78
2023/05/31 01:33:16;;;;;;;1.90;1.47;;;15.30;99.90;;;;;;4970081;28;20178;-78
2023/05/31 01:35:42;;;;;;;2.23;1.60;;;15.30;99.90;;;;;;4970309;28;20201;-77
2023/05/31 01:38:07;;;;;;;3.13;1.67;;;15.30;99.90;;;;;;4980775;28;20193;-77
2023/05/31 01:40:34;;;;;;;2.57;1.70;;;15.30;99.90;;;;;;4970741;28;20660;-77
2023/05/31 01:43:00;;;;;;;3.40;1.50;;;15.10;99.90;;;;;;4973633;28;20185;-79
2023/05/31 01:45:27;;;;;;;4.63;1.50;;;15.10;99.90;;;;;;4973560;28;20185;-79
2023/05/31 01:47:58;;;;;;;1.53;1.40;;;15.10;99.90;;;;;;4973389;28;20228;-79
2023/05/31 01:50:25;;;;;;;2.87;1.57;;;15.10;99.90;;;;;;4974700;28;20212;-80
2023/05/31 01:52:51;;;;;;;5.20;1.73;;;15.10;99.90;;;;;;4972474;28;20173;-78
2023/05/31 01:55:16;;;;;;;2.10;1.60;;;15.10;99.90;;;;;;4972187;28;20789;-79
2023/05/31 01:57:43;;;;;;;2.17;1.67;;;15.10;99.90;;;;;;4972958;28;20609;-80
2023/05/31 02:00:12;;;;;;;2.00;1.77;;;15.10;99.90;;;;;;4970587;28;20185;-80
2023/05/31 02:02:42;;;;;;;4.33;1.77;;;15.00;99.90;;;;;;4970312;28;20188;-79
2023/05/31 02:05:08;;;;;;;1.70;1.40;;;14.80;99.90;;;;;;4970803;28;20256;-78
2023/05/31 02:07:37;;;;;;;2.60;1.43;;;14.70;99.90;;;;;;4971331;28;20216;-79
2023/05/31 02:10:03;;;;;;;1.60;1.50;;;14.60;99.90;;;;;;4971139;28;20177;-80
2023/05/31 02:12:29;;;;;;;2.30;1.70;;;14.60;99.90;;;;;;4971362;28;20188;-78
2023/05/31 02:14:55;;;;;;;4.30;1.77;;;14.60;99.90;;;;;;4968993;28;20696;-78
2023/05/31 02:17:23;;;;;;;2.80;1.60;;;14.50;99.90;;;;;;4969820;28;20202;-77
2023/05/31 02:19:50;;;;;;;4.87;1.80;;;14.50;99.90;;;;;;4970955;28;20679;-77
2023/05/31 02:22:16;;;;;;;3.03;1.97;;;14.50;99.90;;;;;;4969611;28;20566;-78
2023/05/31 02:24:41;;;;;;;3.37;1.63;;;14.50;99.90;;;;;;4968880;28;20178;-79
2023/05/31 02:27:07;;;;;;;3.97;2.00;;;14.30;99.90;;;;;;4970531;28;20212;-77
2023/05/31 02:29:32;;;;;;;2.77;1.60;;;14.30;99.90;;;;;;4960239;28;20551;-77
2023/05/31 02:31:58;;;;;;;3.17;1.70;;;14.30;99.90;;;;;;4970925;28;20191;-79
2023/05/31 02:34:23;;;;;;;1.70;1.37;;;14.40;99.90;;;;;;4970162;28;20208;-79
2023/05/31 02:36:49;;;;;;;2.83;1.37;;;14.30;99.90;;;;;;4970845;28;20216;-79
2023/05/31 02:39:15;;;;;;;2.63;1.73;;;14.30;99.90;;;;;;4970244;28;20201;-77
2023/05/31 02:41:40;;;;;;;2.80;1.50;;;14.30;99.90;;;;;;4971048;28;20181;-78
2023/05/31 02:44:06;;;;;;;2.93;1.63;;;14.30;99.90;;;;;;4957572;28;20666;-79
2023/05/31 02:46:31;;;;;;;3.13;1.33;;;14.30;99.90;;;;;;4969184;28;20225;-77
2023/05/31 02:48:56;;;;;;;3.23;1.60;;;14.20;99.90;;;;;;4968728;28;20173;-78
2023/05/31 02:51:22;;;;;;;4.43;1.53;;;14.30;99.90;;;;;;4970183;28;20272;-77
2023/05/31 02:53:47;;;;;;;3.83;1.73;;;14.20;99.90;;;;;;4969437;28;20206;-78
2023/05/31 02:56:13;;;;;;;6.53;1.90;;;14.30;99.90;;;;;;4970070;28;20207;-77
2023/05/31 02:58:38;;;;;;;4.80;1.80;;;14.40;99.90;;;;;;4969844;28;20188;-77
2023/05/31 03:01:04;;;;;;;2.50;1.37;;;14.40;99.90;;;;;;4968802;28;20535;-78
2023/05/31 03:03:29;;;;;;;1.73;1.47;;;14.30;99.90;;;;;;4968545;28;20273;-76
2023/05/31 03:05:55;;;;;;;4.03;1.40;;;14.30;99.90;;;;;;4969475;28;20566;-76
2023/05/31 03:08:21;;;;;;;1.70;1.37;;;14.30;99.90;;;;;;4974605;28;20671;-77
2023/05/31 03:10:46;;;;;;;4.47;1.90;;;14.30;99.90;;;;;;4968791;28;20177;-77
2023/05/31 03:13:12;;;;;;;1.67;1.33;;;14.30;99.90;;;;;;4969679;28;20169;-76
2023/05/31 03:15:38;;;;;;;1.70;1.60;;;14.30;99.90;;;;;;4969171;28;20224;-78
2023/05/31 03:18:03;;;;;;;6.63;1.57;;;14.30;99.90;;;;;;4968540;28;20177;-77
2023/05/31 03:20:30;;;;;;;3.13;1.80;;;14.30;99.90;;;;;;4968487;28;20183;-77
2023/05/31 03:22:56;;;;;;;6.70;1.40;;;14.20;99.90;;;;;;4969479;28;20196;-78
2023/05/31 03:25:21;;;;;;;2.47;1.33;;;14.20;99.90;;;;;;4967685;28;20173;-77
2023/05/31 03:27:47;;;;;;;3.20;1.20;;;14.10;99.90;;;;;;4970582;28;20239;-78
2023/05/31 03:30:13;;;;;;;6.37;2.10;;;14.10;99.90;;;;;;4973933;28;20208;-77
2023/05/31 03:32:38;;;;;;;4.10;1.70;;;14.10;99.90;;;;;;4973987;28;20170;-77
2023/05/31 03:35:04;;;;;;;3.13;1.83;;;14.00;99.90;;;;;;4971927;28;20207;-78
2023/05/31 03:37:30;;;;;;;4.93;1.60;;;14.00;99.90;;;;;;4972965;28;20716;-78
2023/05/31 03:39:55;;;;;;;4.07;1.87;;;14.00;99.90;;;;;;4972865;28;20256;-78
2023/05/31 03:42:21;;;;;;;2.43;1.37;;;14.00;99.90;;;;;;4971699;28;20173;-77
2023/05/31 03:44:46;;;;;;;5.00;1.53;;;13.90;99.90;;;;;;4972254;28;20189;-79
2023/05/31 03:47:12;;;;;;;3.50;1.60;;;13.80;99.90;;;;;;4972830;28;20612;-77
2023/05/31 03:49:37;;;;;;;3.90;1.77;;;13.90;99.90;;;;;;4972430;28;20184;-79
2023/05/31 03:52:03;;;;;;;2.70;1.60;;;13.90;99.90;;;;;;4972720;28;20173;-76
2023/05/31 03:54:30;;;;;;;4.27;1.50;;;13.80;99.90;;;;;;4971290;28;20674;-79
2023/05/31 03:56:55;;;;;;;2.40;1.80;;;13.80;99.90;;;;;;4971205;28;20194;-78
2023/05/31 03:59:21;;;;;;;2.73;1.40;;;13.80;99.90;;;;;;4971762;28;20193;-77
2023/05/31 04:01:46;;;;;;;3.43;1.80;;;13.90;99.90;;;;;;4972100;28;20196;-76
2023/05/31 04:04:12;;;;;;;4.07;1.80;;;13.90;99.90;;;;;;4972381;28;20185;-77
2023/05/31 04:06:37;;;;;;;2.83;1.57;;;13.90;99.90;;;;;;4972021;28;20208;-77
2023/05/31 04:09:04;;;;;;;2.90;1.60;;;13.80;99.90;;;;;;4972309;28;20181;-76
2023/05/31 04:11:30;;;;;;;2.93;1.43;;;14.00;99.90;;;;;;4972566;28;20169;-79
2023/05/31 04:13:55;;;;;;;2.10;1.50;;;14.00;99.90;;;;;;4971853;28;20178;-77
2023/05/31 04:16:20;;;;;;;4.63;1.77;;;14.10;99.90;;;;;;4970972;28;20228;-78
2023/05/31 04:18:46;;;;;;;4.67;1.60;;;14.10;99.90;;;;;;4970676;28;20696;-76
2023/05/31 04:21:12;;;;;;;4.93;1.70;;;14.10;99.90;;;;;;4971315;28;20650;-76
2023/05/31 04:23:37;;;;;;;4.87;1.70;;;14.10;99.90;;;;;;4970672;28;20181;-77
2023/05/31 04:26:03;;;;;;;2.00;1.77;;;14.20;99.90;;;;;;4970540;28;20201;-77
2023/05/31 04:28:29;;;;;;;3.23;1.80;;;14.20;99.90;;;;;;4971597;28;20209;-78
2023/05/31 04:30:56;;;;;;;3.20;1.47;;;14.20;99.90;;;;;;4971931;28;20170;-77
2023/05/31 04:33:22;;;;;;;1.50;1.30;;;14.20;99.90;;;;;;4972041;28;20173;-77
2023/05/31 04:35:48;;;;;;;3.73;1.70;;;14.20;99.90;;;;;;4970343;28;20200;-77
2023/05/31 04:38:16;;;;;;;1.80;1.70;;;14.30;99.90;;;;;;4970726;28;20271;-77
2023/05/31 04:40:42;;;;;;;3.03;1.63;;;14.40;99.90;;;;;;4971371;28;20170;-77
2023/05/31 04:43:08;;;;;;;3.27;1.40;;;14.50;99.90;;;;;;4970530;28;20181;-77
2023/05/31 04:45:33;;;;;;;4.00;2.23;;;14.60;99.90;;;;;;4970768;28;20238;-77
2023/05/31 04:47:59;;;;;;;4.50;1.57;;;14.70;99.90;;;;;;4972011;28;20346;-78
2023/05/31 04:50:25;;;;;;;3.80;1.40;;;15.60;99.90;;;;;;4970342;28;20674;-76
2023/05/31 04:52:51;;;;;;;3.27;1.33;;;17.30;99.90;;;;;;4971527;28;20174;-77
2023/05/31 04:55:17;;;;;;;2.90;1.70;;;17.40;99.90;;;;;;4971102;28;20178;-78
2023/05/31 04:57:43;;;;;;;1.67;1.53;;;17.80;99.90;;;;;;4971593;28;20323;-78
2023/05/31 05:00:15;;;;;;;1.57;1.33;;;17.60;99.90;;;;;;4970659;28;20271;-76
2023/05/31 05:02:41;;;;;;;3.00;1.77;;;17.50;99.90;;;;;;4971649;28;20191;-77
2023/05/31 05:05:07;;;;;;;2.43;1.70;;;17.50;99.90;;;;;;4971045;28;20573;-77
2023/05/31 05:07:32;;;;;;;3.83;1.93;;;16.60;99.90;;;;;;4971839;28;20213;-77
2023/05/31 05:09:58;;;;;;;4.07;1.60;;;16.00;99.90;;;;;;4970255;28;20531;-77
2023/05/31 05:12:23;;;;;;;3.00;1.90;;;16.00;99.90;;;;;;4970223;28;20185;-78
2023/05/31 05:14:49;;;;;;;3.77;1.60;;;16.10;99.90;;;;;;4970139;28;20174;-78
2023/05/31 05:17:14;;;;;;;2.80;1.70;;;16.10;99.90;;;;;;4971458;28;20229;-77
2023/05/31 05:19:40;;;;;;;4.07;1.90;;;16.30;99.90;;;;;;4971567;28;20189;-77
2023/05/31 05:22:05;;;;;;;3.33;1.60;;;16.40;99.90;;;;;;4970107;28;20531;-78
2023/05/31 05:24:31;;;;;;;3.80;1.80;;;16.50;99.90;;;;;;4971285;28;20259;-77
2023/05/31 05:26:57;;;;;;;5.47;1.90;;;16.50;99.90;;;;;;4970845;28;20209;-77
2023/05/31 05:29:22;;;;;;;3.73;1.70;;;16.50;99.90;;;;;;4970268;28;20182;-77
2023/05/31 05:31:48;;;;;;;4.80;1.90;;;16.60;99.90;;;;;;4970198;28;20235;-78
2023/05/31 05:34:14;;;;;;;3.40;1.93;;;16.50;99.90;;;;;;4972191;28;20174;-79
2023/05/31 05:36:40;;;;;;;2.10;1.90;;;16.70;99.90;;;;;;4973523;28;20216;-79
2023/05/31 05:39:07;;;;;;;2.87;1.60;;;16.80;99.90;;;;;;4974514;28;20635;-80
2023/05/31 05:41:33;;;;;;;4.57;1.80;;;16.90;99.90;;;;;;4973215;28;20179;-79
2023/05/31 05:43:59;;;;;;;7.13;1.60;;;17.00;99.90;;;;;;4971087;28;20263;-80
2023/05/31 05:46:24;;;;;;;5.87;1.90;;;17.50;99.90;;;;;;4971039;28;20206;-79
2023/05/31 05:48:50;;;;;;;1.87;1.63;;;17.80;99.90;;;;;;4971276;28;20661;-79
2023/05/31 05:51:16;;;;;;;5.43;1.50;;;17.80;99.90;;;;;;4971455;28;20206;-76
2023/05/31 05:53:41;;;;;;;1.70;1.60;;;17.60;99.90;;;;;;4971060;28;20187;-78
2023/05/31 05:56:07;;;;;;;2.57;1.80;;;17.40;99.90;;;;;;4970785;28;20198;-79
2023/05/31 05:58:32;;;;;;;2.70;1.60;;;17.20;99.90;;;;;;4971191;28;20626;-80
2023/05/31 06:00:58;;;;;;;1.57;1.37;;;17.10;99.90;;;;;;4970446;28;20198;-80
2023/05/31 06:03:23;;;;;;;3.23;1.37;;;17.30;99.90;;;;;;4971451;28;20249;-79
2023/05/31 06:05:49;;;;;;;2.60;1.40;;;17.40;99.90;;;;;;4969880;28;20210;-79
2023/05/31 06:08:15;;;;;;;3.50;1.63;;;17.50;99.90;;;;;;4970851;28;20201;-78
2023/05/31 06:10:41;;;;;;;3.47;1.83;;;17.60;99.90;;;;;;4970137;28;20178;-79
2023/05/31 06:13:06;;;;;;;3.67;1.60;;;17.50;99.90;;;;;;4970791;28;20170;-80
2023/05/31 06:15:32;;;;;;;5.13;1.90;;;17.40;99.90;;;;;;4970700;28;20179;-79
2023/05/31 06:17:58;;;;;;;4.43;2.00;;;17.30;99.90;;;;;;4969406;28;20185;-78
2023/05/31 06:20:23;;;;;;;3.73;1.70;;;17.40;99.90;;;;;;4968237;28;20674;-79
2023/05/31 06:22:51;;;;;;;2.43;1.80;;;17.30;99.90;;;;;;4963691;28;20882;-80
2023/05/31 06:25:17;;;;;;;2.63;1.80;;;17.40;99.90;;;;;;4965745;28;20169;-79
2023/05/31 06:27:45;;;;;;;4.93;1.80;;;17.60;99.90;;;;;;5014880;23;20217;-65
2023/05/31 06:30:12;;;;;;;1.73;1.40;;;17.60;99.90;;;;;;4990427;28;20196;-66
2023/05/31 06:32:38;;;;;;;2.53;1.93;;;17.80;99.90;;;;;;4976464;28;20173;-67
2023/05/31 06:35:04;;;;;;;2.40;1.50;;;17.90;99.90;;;;;;4976114;28;20178;-65
2023/05/31 06:37:31;;;;;;;3.30;2.03;;;18.00;99.90;;;;;;4984067;28;20175;-66
2023/05/31 06:39:57;;;;;;;3.40;1.90;;;18.00;99.90;;;;;;4985359;28;20207;-66
2023/05/31 06:42:22;;;;;;;3.33;2.00;;;17.90;99.90;;;;;;4977003;28;20685;-67
2023/05/31 06:44:48;;;;;;;3.30;1.47;;;17.80;99.90;;;;;;4990031;28;20178;-66
2023/05/31 06:47:14;;;;;;;4.43;1.80;;;17.90;99.90;;;;;;4990187;28;20206;-67
2023/05/31 06:49:39;;;;;;;3.40;1.90;;;17.80;99.90;;;;;;4988762;28;20576;-66
2023/05/31 06:52:06;;;;;;;2.63;1.70;;;17.80;99.90;;;;;;4985847;28;20614;-66
2023/05/31 06:54:35;;;;;;;2.80;1.83;;;18.10;99.90;;;;;;4969225;28;20651;-67
2023/05/31 06:57:02;;;;;;;3.27;1.90;;;17.80;99.90;;;;;;4988622;28;20190;-66
2023/05/31 06:59:27;;;;;;;5.33;1.97;;;17.90;99.90;;;;;;4978846;28;20196;-66
2023/05/31 07:01:54;;;;;;;6.50;2.30;;;17.90;99.90;;;;;;4987213;28;20469;-67
2023/05/31 07:04:20;;;;;;;3.90;1.90;;;18.00;99.90;;;;;;4990208;28;20202;-66
2023/05/31 07:06:46;;;;;;;3.70;2.13;;;18.00;99.90;;;;;;4985010;28;20237;-66
2023/05/31 07:09:11;;;;;;;5.43;1.80;;;18.00;99.90;;;;;;4981789;28;20179;-66
2023/05/31 07:11:42;;;;;;;1.77;1.60;;;18.10;99.90;;;;;;4989888;28;20542;-65
2023/05/31 07:14:09;;;;;;;4.30;2.00;;;18.30;99.90;;;;;;4989897;28;20611;-66
2023/05/31 07:16:35;;;;;;;3.60;1.80;;;18.30;99.90;;;;;;4989695;28;20258;-66
2023/05/31 07:19:02;;;;;;;5.53;1.80;;;18.50;99.90;;;;;;4989866;28;20551;-66
2023/05/31 07:21:27;;;;;;;3.53;1.83;;;18.70;99.90;;;;;;4989648;28;20180;-67
2023/05/31 07:23:54;;;;;;;4.23;1.77;;;18.90;99.90;;;;;;4977213;28;20566;-66
2023/05/31 07:26:20;;;;;;;4.20;1.90;;;19.00;99.90;;;;;;4989389;28;20602;-67
2023/05/31 07:28:46;;;;;;;3.73;1.93;;;18.80;99.90;;;;;;4977167;28;20520;-67
2023/05/31 07:31:12;;;;;;;2.57;1.53;;;18.90;99.90;;;;;;4970712;28;20547;-67
2023/05/31 07:33:38;;;;;;;2.63;1.90;;;18.70;99.90;;;;;;4970584;28;20200;-66
2023/05/31 07:36:04;;;;;;;4.70;1.87;;;18.80;99.90;;;;;;4989169;28;20194;-66
2023/05/31 07:38:30;;;;;;;3.80;1.83;;;18.80;99.90;;;;;;4989425;28;20168;-65
2023/05/31 07:40:55;;;;;;;5.40;1.70;;;18.90;99.90;;;;;;4987883;28;20173;-66
2023/05/31 07:43:23;;;;;;;3.83;1.80;;;19.30;99.90;;;;;;4989664;28;20596;-66
2023/05/31 07:45:49;;;;;;;4.47;1.60;;;19.40;99.90;;;;;;4976270;28;20243;-66
2023/05/31 07:48:15;;;;;;;5.60;2.10;;;19.50;99.90;;;;;;4975778;28;20201;-67
2023/05/31 07:50:40;;;;;;;3.15;1.80;;;19.50;99.90;;;;;;4989046;28;20656;-66
2023/05/31 07:53:06;;;;;;;5.30;1.80;;;19.80;99.90;;;;;;4989606;28;20200;-67
2023/05/31 07:55:31;;;;;;;2.63;1.90;;;19.60;99.90;;;;;;4988959;28;20189;-67
2023/05/31 07:57:57;;;;;;;6.32;1.95;;;19.50;99.90;;;;;;4989304;28;20168;-65
2023/05/31 08:00:23;;;;;;;2.63;1.73;;;19.90;99.90;;;;;;4989537;28;20181;-67
2023/05/31 08:02:49;;;;;;;2.25;2.05;;;19.60;99.90;;;;;;4989319;28;20200;-66
2023/05/31 08:05:15;;;;;;;3.40;2.00;;;19.80;99.90;;;;;;4975926;28;20199;-65
2023/05/31 08:07:40;;;;;;;3.85;1.95;;;19.80;99.90;;;;;;4988951;28;20273;-67
2023/05/31 08:10:06;;;;;;;3.42;2.00;;;19.90;99.90;;;;;;4989060;28;20238;-65
2023/05/31 08:12:32;;;;;;;5.55;2.10;;;20.00;99.90;;;;;;4989672;28;20188;-66
2023/05/31 08:14:57;;;;;;;5.10;1.98;;;20.10;99.90;;;;;;4991113;28;20617;-68
2023/05/31 08:17:23;;;;;;;4.78;2.03;;;20.20;99.90;;;;;;4991229;28;20546;-67
2023/05/31 08:19:49;;;;;;;2.25;2.05;;;20.20;99.90;;;;;;4992580;28;20498;-67
2023/05/31 08:22:14;;;;;;;3.88;1.88;;;20.50;99.90;;;;;;4978425;28;20184;-66
2023/05/31 08:24:40;;;;;;;2.22;1.45;;;20.40;99.90;;;;;;4972898;28;20256;-66
2023/05/31 08:27:06;;;;;;;2.15;1.73;;;20.40;99.90;;;;;;4972986;28;20266;-66
2023/05/31 08:29:31;;;;;;;4.22;1.88;;;20.40;99.90;;;;;;4990874;28;20181;-67
2023/05/31 08:31:57;;;;;;;4.82;2.13;;;20.50;99.90;;;;;;4979825;28;20180;-66
2023/05/31 08:34:22;;;;;;;2.72;1.80;;;20.80;99.90;;;;;;4991668;28;20175;-67
2023/05/31 08:36:48;;;;;;;4.47;1.95;;;20.90;99.90;;;;;;4980338;28;20683;-67
2023/05/31 08:39:14;;;;;;;3.25;1.55;;;21.00;99.90;;;;;;4990852;28;20176;-67
2023/05/31 08:41:50;;;;;;;6.03;1.90;;;20.90;99.90;;;;;;4979059;28;20204;-66
2023/05/31 08:44:18;;;;;;;2.38;1.70;;;21.10;99.90;;;;;;4972595;28;20333;-66
2023/05/31 08:46:47;;;;;;;3.85;1.60;;;21.20;99.90;;;;;;4972659;28;20201;-66
2023/05/31 08:49:15;;;;;;;3.83;1.80;;;21.40;99.90;;;;;;4979996;28;20176;-66
2023/05/31 08:51:45;;;;;;;3.53;1.80;;;21.70;99.90;;;;;;4991652;28;20184;-67
2023/05/31 08:54:11;;;;;;;2.88;1.65;;;21.70;95.90;;;;;;4983222;28;20697;-67
2023/05/31 08:56:38;;;;;;;1.65;1.50;;;21.70;93.50;;;;;;4987310;28;20192;-67
2023/05/31 08:59:08;;;;;;;9.30;2.80;;;21.60;93.00;;;;;;4983379;28;20173;-67
2023/05/31 09:01:35;;;;;;;5.22;1.60;;;21.70;94.20;;;;;;4985564;28;20209;-68
2023/05/31 09:04:03;;;;;;;2.75;1.48;;;22.20;92.60;;;;;;4981244;28;20229;-67
2023/05/31 09:06:29;;;;;;;14.13;2.38;;;21.70;90.70;;;;;;4975837;28;20250;-67
2023/05/31 09:08:55;;;;;;;4.85;2.80;;;21.90;90.70;;;;;;4981134;28;20200;-67
2023/05/31 09:11:22;;;;;;;2.95;1.50;;;21.80;92.50;;;;;;4989643;28;20179;-66
2023/05/31 09:13:47;;;;;;;2.20;1.52;;;21.90;90.80;;;;;;4989696;28;20746;-66
2023/05/31 09:16:14;;;;;;;2.47;1.65;;;22.00;91.20;;;;;;4991330;28;20192;-67
2023/05/31 09:18:39;;;;;;;4.63;1.83;;;22.20;90.50;;;;;;4990581;28;20185;-67
2023/05/31 09:21:10;;;;;;;5.60;1.75;;;22.30;88.20;;;;;;4988343;28;20237;-67
2023/05/31 09:23:36;;;;;;;2.08;1.95;;;22.30;89.60;;;;;;4983168;28;20191;-68
2023/05/31 09:26:06;;;;;;;1.98;1.60;;;22.80;90.20;;;;;;4987045;28;20666;-66
2023/05/31 09:28:32;;;;;;;3.10;1.60;;;22.60;89.30;;;;;;4986609;28;20280;-65
2023/05/31 09:31:03;;;;;;;2.70;1.65;;;22.40;86.10;;;;;;4990846;28;20570;-66
2023/05/31 09:33:41;;;;;;;2.13;1.80;;;22.60;87.10;;;;;;4990840;28;20246;-66
2023/05/31 09:36:08;;;;;;;3.28;1.80;;;22.60;87.90;;;;;;4990321;28;20185;-67
2023/05/31 09:38:35;;;;;;;5.18;1.60;;;22.70;86.30;;;;;;4990087;28;20230;-68
2023/05/31 09:41:13;;;;;;;3.85;1.80;;;23.10;85.80;;;;;;4985245;28;20531;-65
2023/05/31 09:43:40;;;;;;;6.13;1.77;;;22.90;82.40;;;;;;4988401;28;20203;-67
2023/05/31 09:46:14;;;;;;;3.40;1.73;;;23.00;80.90;;;;;;4990520;28;20254;-67
2023/05/31 09:48:40;;;;;;;2.58;1.83;;;23.10;80.90;;;;;;4989765;28;20200;-69
2023/05/31 09:51:08;;;;;;;4.60;1.77;;;23.30;81.70;;;;;;4990244;28;20581;-69
2023/05/31 09:53:44;;;;;;;2.05;1.67;;;23.10;79.00;;;;;;4987777;28;20596;-68
2023/05/31 09:56:11;;;;;;;4.82;1.75;;;23.00;77.00;;;;;;4990560;28;20234;-69
2023/05/31 09:58:37;;;;;;;3.67;1.73;;;23.20;79.90;;;;;;4989505;28;20272;-69
2023/05/31 10:01:03;;;;;;;3.33;1.80;;;23.50;79.90;;;;;;4990531;28;20207;-69
2023/05/31 10:03:31;;;;;;;1.55;1.45;;;23.60;72.80;;;;;;4985877;28;20227;-69
2023/05/31 10:05:56;;;;;;;2.70;1.70;;;23.50;74.30;;;;;;4982170;28;20279;-69
2023/05/31 10:08:23;;;;;;;5.53;1.92;;;23.40;73.80;;;;;;4990575;28;20307;-69
2023/05/31 10:10:49;;;;;;;2.00;1.77;;;23.30;71.60;;;;;;4990903;28;20176;-68
2023/05/31 10:13:17;;;;;;;3.67;1.48;;;23.30;68.30;;;;;;4977708;28;20589;-68
2023/05/31 10:15:46;;;;;;;4.72;1.92;;;23.30;68.00;;;;;;4990244;28;20200;-70
2023/05/31 10:18:15;;;;;;;4.82;1.77;;;23.80;69.50;;;;;;4990561;28;20221;-69
2023/05/31 10:20:51;;;;;;;3.25;1.65;;;24.00;71.00;;;;;;4989076;28;20204;-68
2023/05/31 10:23:22;;;;;;;1.85;1.67;;;23.90;65.80;;;;;;4978852;28;20169;-69
2023/05/31 10:26:13;;;;;;;3.03;1.60;;;24.00;60.60;;;;;;4989930;28;20263;-69
2023/05/31 10:28:53;;;;;;;1.85;1.73;;;23.70;58.70;;;;;;4989902;28;20204;-68
2023/05/31 10:31:22;;;;;;;1.73;1.50;;;23.80;61.80;;;;;;4990448;28;20172;-70
2023/05/31 10:33:54;;;;;;;3.92;1.83;;;24.10;60.00;;;;;;4989010;28;20176;-68
2023/05/31 10:36:19;;;;;;;2.88;1.67;;;24.00;57.40;;;;;;4990042;28;20193;-69
2023/05/31 10:38:59;;;;;;;4.25;1.90;;;24.20;60.00;;;;;;4989829;28;20189;-67
2023/05/31 10:41:28;;;;;;;1.35;1.25;;;24.50;57.60;;;;;;4990255;28;20180;-69
2023/05/31 10:44:08;;;;;;;5.25;1.80;;;24.60;59.30;;;;;;4989787;28;20188;-68
2023/05/31 10:46:36;;;;;;;1.90;1.80;;;25.00;59.60;;;;;;4989845;28;20197;-70
2023/05/31 10:49:05;;;;;;;2.15;1.70;;;24.80;56.40;;;;;;4990027;28;20553;-70
2023/05/31 10:51:45;;;;;;;2.13;1.90;;;24.90;55.90;;;;;;4989873;28;20531;-71
2023/05/31 10:54:19;;;;;;;2.42;1.75;;;24.90;56.90;;;;;;4989888;28;20164;-69
2023/05/31 10:56:56;;;;;;;4.45;1.55;;;24.90;57.50;;;;;;4990023;28;20184;-68
2023/05/31 10:59:28;;;;;;;2.55;1.70;;;24.90;55.40;;;;;;4989789;28;20172;-68
2023/05/31 11:01:54;;;;;;;4.35;1.58;;;25.00;57.10;;;;;;4989822;28;20169;-70
2023/05/31 11:04:21;;;;;;;3.85;1.80;;;24.90;55.20;;;;;;4988372;28;20173;-69
2023/05/31 11:06:51;;;;;;;2.00;1.35;;;25.00;56.70;;;;;;4989577;28;20206;-70
2023/05/31 11:09:17;;;;;;;2.72;1.60;;;25.10;57.50;;;;;;4990072;28;20181;-69
2023/05/31 11:11:46;;;;;;;1.60;1.50;;;25.60;56.50;;;;;;4990049;28;20513;-69
2023/05/31 11:14:25;;;;;;;4.90;2.38;;;25.10;55.30;;;;;;4989373;28;20267;-70
2023/05/31 11:16:56;;;;;;;1.90;1.27;;;25.20;54.30;;;;;;4986679;28;20193;-69
2023/05/31 11:19:33;;;;;;;2.42;1.38;;;24.90;55.00;;;;;;4984347;28;20204;-68
2023/05/31 11:22:10;;;;;;;3.03;1.70;;;25.40;55.50;;;;;;4980559;28;20230;-69
2023/05/31 11:24:57;;;;;;;2.30;1.50;;;25.40;55.60;;;;;;4979580;28;20169;-70
2023/05/31 11:27:38;;;;;;;4.72;1.77;;;25.60;55.30;;;;;;4970689;28;20307;-68
2023/05/31 11:30:12;;;;;;;2.95;1.50;;;25.90;55.70;;;;;;4985040;28;20267;-70
2023/05/31 11:32:38;;;;;;;3.80;2.00;;;25.40;54.20;;;;;;4975677;28;20655;-69
2023/05/31 11:35:06;;;;;;;3.30;1.70;;;25.50;53.10;;;;;;4977941;28;20263;-68
2023/05/31 11:37:37;;;;;;;1.83;1.65;;;26.00;53.00;;;;;;4982435;28;20172;-68
2023/05/31 11:40:11;;;;;;;1.48;1.30;;;25.90;52.90;;;;;;4977454;28;20296;-70
2023/05/31 11:42:38;;;;;;;2.60;1.60;;;26.30;52.00;;;;;;4977423;28;20179;-68
2023/05/31 11:45:09;;;;;;;2.97;1.80;;;26.30;52.00;;;;;;4982729;28;20627;-69
2023/05/31 11:47:44;;;;;;;1.65;1.55;;;25.80;51.00;;;;;;4985188;28;20291;-70
2023/05/31 11:50:16;;;;;;;3.38;1.85;;;25.70;51.40;;;;;;4982015;28;20176;-68
2023/05/31 11:52:41;;;;;;;3.15;1.70;;;25.70;51.60;;;;;;4992280;28;20172;-69
2023/05/31 11:55:08;;;;;;;3.78;1.90;;;25.90;51.20;;;;;;4990496;28;20175;-70
2023/05/31 11:57:41;;;;;;;2.75;1.77;;;25.90;51.80;;;;;;4991896;28;20679;-69
2023/05/31 12:00:10;;;;;;;3.30;1.60;;;25.70;51.60;;;;;;4978794;28;20168;-69
2023/05/31 12:02:36;;;;;;;2.45;1.73;;;25.80;52.60;;;;;;4991094;28;20191;-70
2023/05/31 12:05:03;;;;;;;1.75;1.50;;;26.10;50.20;;;;;;4990063;28;20555;-70
2023/05/31 12:07:29;;;;;;;3.50;1.55;;;26.10;51.40;;;;;;4992176;28;20656;-68
2023/05/31 12:09:54;;;;;;;1.60;1.50;;;26.10;50.40;;;;;;4978707;28;20230;-70
2023/05/31 12:12:20;;;;;;;2.85;1.70;;;26.50;50.40;;;;;;4983149;28;20168;-70
2023/05/31 12:14:54;;;;;;;2.38;1.58;;;26.30;49.10;;;;;;4985508;28;20652;-70
2023/05/31 12:17:20;;;;;;;1.63;1.48;;;26.30;49.00;;;;;;4991242;28;20321;-69
2023/05/31 12:19:48;;;;;;;3.47;1.80;;;26.30;49.50;;;;;;4986375;28;20234;-69
2023/05/31 12:22:14;;;;;;;1.65;1.50;;;26.40;49.70;;;;;;4989226;28;20181;-70
2023/05/31 12:24:49;;;;;;;2.90;1.50;;;26.10;48.00;;;;;;4992264;28;20173;-68
2023/05/31 12:27:15;;;;;;;2.50;1.45;;;25.90;50.80;;;;;;4989964;28;20789;-68
2023/05/31 12:29:41;;;;;;;2.17;1.52;;;26.40;50.40;;;;;;4984768;28;20177;-69
2023/05/31 12:32:07;;;;;;;1.60;1.50;;;26.60;49.70;;;;;;4991427;28;20191;-68
2023/05/31 12:34:35;;;;;;;1.65;1.50;;;26.30;49.90;;;;;;4991561;28;20211;-68
2023/05/31 12:37:07;;;;;;;1.40;1.30;;;26.30;49.50;;;;;;4978247;28;20188;-68
2023/05/31 12:39:36;;;;;;;1.70;1.60;;;26.60;48.20;;;;;;4985632;28;20608;-69
2023/05/31 12:42:03;;;;;;;3.25;1.60;;;26.70;49.30;;;;;;4991664;28;20241;-69
2023/05/31 12:44:30;;;;;;;2.05;1.42;;;26.50;48.60;;;;;;4985911;28;20208;-67
2023/05/31 12:47:04;;;;;;;1.65;1.55;;;26.50;47.80;;;;;;4990675;28;20197;-69
2023/05/31 12:49:31;;;;;;;1.42;1.33;;;26.50;47.00;;;;;;4981692;28;20169;-67